الصفحة الرئيسية
METAR-TAF:

METAR-TAF

مطار :

أليانس, نبراسكا, الولايات المتحدة

دائرة عرض: 42-03-26N, خط طول: 102-48-00W, ارتفاع: 1197 متر

مراقبة الطقس الحالي

تاريخ ووقت الإصدار 1ساعة و 3 دقيقة قبل الساعة 02:53UTC
ريح 4 عقدة من الجنوب الشرقي
درجة الحرارة 5°درجة مئوية
الرطوبة 65%
ضغط 1024 hPa
الرؤية: 16.1 كم
سماء صافية

METAR: KAIA 230253Z AUTO 13004KT 10SM CLR 05/M01 A3024 RMK AO2 SLP249 T00501011 51016

زمن: 21:56 (03:56 UTC)

توقعات

تاريخ ووقت الإصدار 4ساعات و 35 دقيقة قبل الساعة 23:21UTC
التوقعات صالحة من23 الساعة 00 UTC إلى 23 الساعة 24 UTC
ريح 6 عقدة من الشرق/الجنوب الشرقي
الرؤية: 10 كم
سماء صافية
من 23 الساعة 1200 UTC
ريح 12 عقدة من الجنوب/الجنوب الشرقي تتزايد حتى 18 عقدة
الرؤية: 10 كم
غيوم مفككة على ارتفاع 5000 قدم
من 23 الساعة 1800 UTC
ريح 18 عقدة من الجنوب تتزايد حتى 28 عقدة
الرؤية: 10 كم
ملبد بالغيوم على ارتفاع 5000 قدم

TAF: KAIA 222321Z 2300/2324 11006KT P6SM SKC FM231200 15012G18KT P6SM BKN050 FM231800 17018G28KT P6SM OVC050

أرصاد الطقس والتوقعات من أكثر من 4000 مطار (تقارير الطقس للمطار METAR والتنبؤ بالطقس بالمطارTAF).

المحطات المتاحة هي النقط الصفراء والحمراء على الخريطة.

حرك المؤشر فوق النقطة لمعرفة اسم المحطة.

ثم انقر لمعرفة أرصاد وتوقعات الطقس.

لتغيير الخارطة: اضغط على الأزرار الخضراء مع رمز الصليب الأسود للتكبير. على الزر الأخضر مع شرطة للتصغير، أو على الأسهم الخضراء للخرائط المجاورة.


METAR-TAF: